createdAt,value
2018-06-17T00:00:54.458Z,82.83
2018-06-17T00:03:22.962Z,82.29
2018-06-17T00:05:51.479Z,81.56
2018-06-17T00:08:20.015Z,81.94
2018-06-17T00:10:48.647Z,81.94
2018-06-17T00:13:17.226Z,83.23
2018-06-17T00:15:45.863Z,81.72
2018-06-17T00:18:14.430Z,82.19
2018-06-17T00:20:42.971Z,83.23
2018-06-17T00:23:11.514Z,82.80
2018-06-17T00:25:40.083Z,83.00
2018-06-17T00:28:08.777Z,82.75
2018-06-17T00:30:37.426Z,82.15
2018-06-17T00:33:06.047Z,82.90
2018-06-17T00:35:34.676Z,82.15
2018-06-17T00:38:03.315Z,82.65
2018-06-17T00:40:32.338Z,83.23
2018-06-17T00:43:00.942Z,82.57
2018-06-17T00:45:29.523Z,82.30
2018-06-17T00:47:58.040Z,82.25
2018-06-17T00:50:26.534Z,83.88
2018-06-17T00:52:55.066Z,83.02
2018-06-17T00:55:23.702Z,83.90
2018-06-17T00:57:53.057Z,83.62
2018-06-17T01:00:23.002Z,84.15
2018-06-17T01:02:51.600Z,83.28
2018-06-17T01:05:20.121Z,83.60
2018-06-17T01:07:48.730Z,83.71
2018-06-17T01:10:17.349Z,82.21
2018-06-17T01:12:45.931Z,82.96
2018-06-17T01:15:14.430Z,82.84
2018-06-17T01:17:42.934Z,83.11
2018-06-17T01:20:11.476Z,83.16
2018-06-17T01:22:40.161Z,82.73
2018-06-17T01:25:08.646Z,82.45
2018-06-17T01:27:37.330Z,82.17
2018-06-17T01:30:05.958Z,82.63
2018-06-17T01:32:34.491Z,83.62
2018-06-17T01:35:03.010Z,82.32
2018-06-17T01:37:31.645Z,83.33
2018-06-17T01:40:00.241Z,81.80
2018-06-17T01:42:28.770Z,81.60
2018-06-17T01:44:57.322Z,82.04
2018-06-17T01:47:25.940Z,81.71
2018-06-17T01:49:54.714Z,81.61
2018-06-17T01:52:23.360Z,81.38
2018-06-17T01:54:52.199Z,81.20
2018-06-17T01:57:20.733Z,80.45
2018-06-17T01:59:49.419Z,80.23
2018-06-17T02:02:17.998Z,79.75
2018-06-17T02:04:51.701Z,80.59
2018-06-17T02:07:25.592Z,79.83
2018-06-17T02:09:59.470Z,79.89
2018-06-17T02:12:28.022Z,80.12
2018-06-17T02:14:57.911Z,79.36
2018-06-17T02:17:27.242Z,78.91
2018-06-17T02:19:56.292Z,79.53
2018-06-17T02:22:25.239Z,79.01
2018-06-17T02:24:55.519Z,79.99
2018-06-17T02:27:24.172Z,79.19
2018-06-17T02:29:52.698Z,79.49
2018-06-17T02:32:21.332Z,79.61
2018-06-17T02:34:49.953Z,80.59
2018-06-17T02:37:18.584Z,79.74
2018-06-17T02:39:47.184Z,80.04
2018-06-17T02:42:16.258Z,78.96
2018-06-17T02:44:44.900Z,79.18
2018-06-17T02:47:18.503Z,78.89
2018-06-17T02:49:48.613Z,80.08
2018-06-17T02:52:22.435Z,78.58
2018-06-17T02:54:51.009Z,79.30
2018-06-17T02:57:20.611Z,78.45
2018-06-17T02:59:49.158Z,78.70
2018-06-17T03:02:17.780Z,79.14
2018-06-17T03:04:46.413Z,79.02
2018-06-17T03:07:15.051Z,77.92
2018-06-17T03:09:43.735Z,78.60
2018-06-17T03:12:12.320Z,78.69
2018-06-17T03:14:40.901Z,77.94
2018-06-17T03:17:09.588Z,78.33
2018-06-17T03:19:38.171Z,78.08
2018-06-17T03:22:06.853Z,77.76
2018-06-17T03:24:40.687Z,78.02
2018-06-17T03:27:14.446Z,77.78
2018-06-17T03:29:48.269Z,78.20
2018-06-17T03:32:22.077Z,78.20
2018-06-17T03:34:55.821Z,78.18
2018-06-17T03:37:24.463Z,78.22
2018-06-17T03:39:53.046Z,77.90
2018-06-17T03:42:21.628Z,78.02
2018-06-17T03:44:50.258Z,78.59
2018-06-17T03:47:18.896Z,77.98
2018-06-17T03:49:47.478Z,78.86
2018-06-17T03:52:16.061Z,78.01
2018-06-17T03:54:44.746Z,78.62
2018-06-17T03:57:13.373Z,78.72
2018-06-17T03:59:41.951Z,78.69
2018-06-17T04:02:10.599Z,77.75
2018-06-17T04:04:44.462Z,78.23
2018-06-17T04:07:14.112Z,78.23
2018-06-17T04:09:42.738Z,78.07
2018-06-17T04:12:11.239Z,79.21
2018-06-17T04:14:40.167Z,78.55
2018-06-17T04:17:12.745Z,78.06
2018-06-17T04:19:41.429Z,78.38
2018-06-17T04:22:10.358Z,78.46
2018-06-17T04:24:38.946Z,78.81
2018-06-17T04:27:08.203Z,78.62
2018-06-17T04:29:37.000Z,78.19
2018-06-17T04:32:05.776Z,78.49
2018-06-17T04:34:34.462Z,78.73
2018-06-17T04:37:02.984Z,77.98
2018-06-17T04:39:31.730Z,78.54
2018-06-17T04:42:00.417Z,77.45
2018-06-17T04:44:29.010Z,77.71
2018-06-17T04:46:57.663Z,77.43
2018-06-17T04:49:26.268Z,77.17
2018-06-17T04:51:55.567Z,76.54
2018-06-17T04:54:24.198Z,76.67
2018-06-17T04:56:52.786Z,76.32
2018-06-17T04:59:21.725Z,76.97
2018-06-17T05:01:50.972Z,76.58
2018-06-17T05:04:19.490Z,76.52
2018-06-17T05:06:48.088Z,76.77
2018-06-17T05:09:16.673Z,76.58
2018-06-17T05:11:45.160Z,76.15
2018-06-17T05:14:13.735Z,76.18
2018-06-17T05:16:42.278Z,75.91
2018-06-17T05:19:10.820Z,76.52
2018-06-17T05:21:39.618Z,77.33
2018-06-17T05:24:08.271Z,76.15
2018-06-17T05:26:36.802Z,76.62
2018-06-17T05:29:05.436Z,76.82
2018-06-17T05:31:34.122Z,76.69
2018-06-17T05:34:02.706Z,76.85
2018-06-17T05:36:31.382Z,77.35
2018-06-17T05:39:00.075Z,76.56
2018-06-17T05:41:28.906Z,77.11
2018-06-17T05:43:57.552Z,76.27
2018-06-17T05:46:26.233Z,76.68
2018-06-17T05:48:54.750Z,76.11
2018-06-17T05:51:23.363Z,75.90
2018-06-17T05:53:51.981Z,76.49
2018-06-17T05:56:21.998Z,74.75
2018-06-17T05:58:50.683Z,75.72
2018-06-17T06:01:19.575Z,76.32
2018-06-17T06:03:48.467Z,76.90
2018-06-17T06:06:17.077Z,75.04
2018-06-17T06:08:45.938Z,75.88
2018-06-17T06:11:14.626Z,75.71
2018-06-17T06:13:43.258Z,76.89
2018-06-17T06:16:11.994Z,76.59
2018-06-17T06:18:40.722Z,76.32
2018-06-17T06:21:09.365Z,77.44
2018-06-17T06:23:37.875Z,78.08
2018-06-17T06:26:06.479Z,78.46
2018-06-17T06:28:35.113Z,78.86
2018-06-17T06:31:03.849Z,80.35
2018-06-17T06:33:32.535Z,80.95
2018-06-17T06:36:01.118Z,82.63
2018-06-17T06:38:29.828Z,82.60
2018-06-17T06:40:58.409Z,82.16
2018-06-17T06:43:26.966Z,82.91
2018-06-17T06:45:55.601Z,82.97
2018-06-17T06:48:24.183Z,82.50
2018-06-17T06:50:52.736Z,84.65
2018-06-17T06:53:21.350Z,84.70
2018-06-17T06:55:49.932Z,84.23
2018-06-17T06:58:18.511Z,85.73
2018-06-17T07:00:47.098Z,84.98
2018-06-17T07:03:26.947Z,85.46
2018-06-17T07:06:06.670Z,85.44
2018-06-17T07:08:46.433Z,85.36
2018-06-17T07:11:14.970Z,84.31
2018-06-17T07:13:43.542Z,85.32
2018-06-17T07:16:23.349Z,84.59
2018-06-17T07:18:51.955Z,85.15
2018-06-17T07:21:20.612Z,83.90
2018-06-17T07:23:49.246Z,84.30
2018-06-17T07:26:30.680Z,84.58
2018-06-17T07:29:10.530Z,85.07
2018-06-17T07:31:39.520Z,84.12
2018-06-17T07:34:08.882Z,84.47
2018-06-17T07:36:38.166Z,82.89
2018-06-17T07:39:16.699Z,83.53
2018-06-17T07:41:46.227Z,82.97
2018-06-17T07:44:14.824Z,83.12
2018-06-17T07:46:43.509Z,83.13
2018-06-17T07:49:35.440Z,82.08
2018-06-17T07:52:16.310Z,82.32
2018-06-17T07:54:45.345Z,81.59
2018-06-17T07:57:16.244Z,82.58
2018-06-17T07:59:44.879Z,82.26
2018-06-17T08:02:14.021Z,82.29
2018-06-17T08:04:42.626Z,83.68
2018-06-17T08:07:11.242Z,82.90
2018-06-17T08:09:40.384Z,82.49
2018-06-17T08:12:09.785Z,82.70
2018-06-17T08:14:38.534Z,82.17
2018-06-17T08:17:07.142Z,82.26
2018-06-17T08:19:37.247Z,81.95
2018-06-17T08:22:05.960Z,82.65
2018-06-17T08:24:35.099Z,82.80
2018-06-17T08:27:03.844Z,82.20
2018-06-17T08:29:32.480Z,81.50
2018-06-17T08:32:01.012Z,80.99
2018-06-17T08:34:29.634Z,80.28
2018-06-17T08:36:58.277Z,79.64
2018-06-17T08:39:26.860Z,79.85
2018-06-17T08:41:55.443Z,79.67
2018-06-17T08:44:24.025Z,79.62
2018-06-17T08:46:52.632Z,80.00
2018-06-17T08:49:21.501Z,80.03
2018-06-17T08:51:50.127Z,80.06
2018-06-17T08:54:18.786Z,80.43
2018-06-17T08:56:47.459Z,80.46
2018-06-17T08:59:15.978Z,80.30
2018-06-17T09:01:44.833Z,80.51
2018-06-17T09:04:14.072Z,81.52
2018-06-17T09:06:42.964Z,81.64
2018-06-17T09:09:12.962Z,81.30
2018-06-17T09:11:41.616Z,80.32
2018-06-17T09:14:10.296Z,80.52
2018-06-17T09:16:38.822Z,80.18
2018-06-17T09:19:07.398Z,79.67
2018-06-17T09:21:36.048Z,79.50
2018-06-17T09:24:04.635Z,79.62
2018-06-17T09:26:33.154Z,79.68
2018-06-17T09:29:02.408Z,78.75
2018-06-17T09:31:30.991Z,78.19
2018-06-17T09:33:59.781Z,79.02
2018-06-17T09:36:28.464Z,78.51
2018-06-17T09:38:56.990Z,78.32
2018-06-17T09:41:25.619Z,78.55
2018-06-17T09:43:54.137Z,78.08
2018-06-17T09:46:22.694Z,78.14
2018-06-17T09:48:51.297Z,78.75
2018-06-17T09:51:20.007Z,78.59
2018-06-17T09:53:48.585Z,78.72
2018-06-17T09:56:17.123Z,78.86
2018-06-17T09:58:46.408Z,79.33
2018-06-17T10:01:16.159Z,79.50
2018-06-17T10:03:44.822Z,79.29
2018-06-17T10:06:13.506Z,78.40
2018-06-17T10:08:42.172Z,77.82
2018-06-17T10:11:11.612Z,77.25
2018-06-17T10:13:43.199Z,77.03
2018-06-17T10:16:12.970Z,76.30
2018-06-17T10:18:41.951Z,75.59
2018-06-17T10:21:10.553Z,75.79
2018-06-17T10:23:39.134Z,75.79
2018-06-17T10:26:07.905Z,76.04
2018-06-17T10:28:36.797Z,75.02
2018-06-17T10:31:06.570Z,74.09
2018-06-17T10:33:36.022Z,74.12
2018-06-17T10:36:04.695Z,73.08
2018-06-17T10:38:33.330Z,72.81
2018-06-17T10:41:01.898Z,73.37
2018-06-17T10:43:31.892Z,72.11
2018-06-17T10:46:00.568Z,71.08
2018-06-17T10:48:29.297Z,72.36
2018-06-17T10:50:57.940Z,72.34
2018-06-17T10:53:26.616Z,73.50
2018-06-17T10:55:55.299Z,72.52
2018-06-17T10:58:23.887Z,71.19
2018-06-17T11:00:52.568Z,72.55
2018-06-17T11:03:21.199Z,72.78
2018-06-17T11:05:49.744Z,73.00
2018-06-17T11:08:18.423Z,75.05
2018-06-17T11:10:47.106Z,73.05
2018-06-17T11:13:16.521Z,72.30
2018-06-17T11:15:45.194Z,71.98
2018-06-17T11:18:13.791Z,72.59
2018-06-17T11:20:42.464Z,69.85
2018-06-17T11:23:11.002Z,69.94
2018-06-17T11:25:39.586Z,70.33
2018-06-17T11:28:08.895Z,67.13
2018-06-17T11:30:37.610Z,69.33
2018-06-17T11:33:06.196Z,67.50
2018-06-17T11:35:34.692Z,67.34
2018-06-17T11:38:03.312Z,65.53
2018-06-17T11:40:32.496Z,65.70
2018-06-17T11:43:01.142Z,64.78
2018-06-17T11:45:29.932Z,65.42
2018-06-17T11:47:58.554Z,63.09
2018-06-17T11:50:27.118Z,63.86
2018-06-17T11:52:55.678Z,63.88
2018-06-17T11:55:24.261Z,62.72
2018-06-17T11:57:52.758Z,61.85
2018-06-17T12:00:21.351Z,62.40
2018-06-17T12:02:50.008Z,61.12
2018-06-17T12:05:18.591Z,63.63
2018-06-17T12:07:47.634Z,62.73
2018-06-17T12:10:16.269Z,62.38
2018-06-17T12:12:45.057Z,63.16
2018-06-17T12:15:13.588Z,61.11
2018-06-17T12:17:42.222Z,62.27
2018-06-17T12:20:10.807Z,62.38
2018-06-17T12:22:39.316Z,63.16
2018-06-17T12:25:07.973Z,63.40
2018-06-17T12:27:36.502Z,63.95
2018-06-17T12:30:05.239Z,63.62
2018-06-17T12:32:35.051Z,64.70
2018-06-17T12:35:03.638Z,63.53
2018-06-17T12:37:32.216Z,64.23
2018-06-17T12:40:00.726Z,65.14
2018-06-17T12:42:29.439Z,64.65
2018-06-17T12:44:59.396Z,65.14
2018-06-17T12:47:28.084Z,66.46
2018-06-17T12:49:56.649Z,65.38
2018-06-17T12:52:25.270Z,68.71
2018-06-17T12:54:53.846Z,68.38
2018-06-17T12:57:23.726Z,68.27
2018-06-17T12:59:52.253Z,67.96
2018-06-17T13:02:20.768Z,69.70
2018-06-17T13:04:50.008Z,70.34
2018-06-17T13:07:18.687Z,70.63
2018-06-17T13:09:47.222Z,71.15
2018-06-17T13:12:15.978Z,70.82
2018-06-17T13:14:44.542Z,71.42
2018-06-17T13:17:13.126Z,71.88
2018-06-17T13:19:41.951Z,71.79
2018-06-17T13:22:10.543Z,70.41
2018-06-17T13:24:39.132Z,71.47
2018-06-17T13:27:07.666Z,72.43
2018-06-17T13:29:36.859Z,72.87
2018-06-17T13:32:05.409Z,72.17
2018-06-17T13:34:33.922Z,72.97
2018-06-17T13:37:02.608Z,72.03
2018-06-17T13:39:31.234Z,72.88
2018-06-17T13:42:00.330Z,72.05
2018-06-17T13:44:30.200Z,73.56
2018-06-17T13:46:58.724Z,73.37
2018-06-17T13:49:27.425Z,74.06
2018-06-17T13:51:55.978Z,73.14
2018-06-17T13:54:24.635Z,75.72
2018-06-17T13:56:53.834Z,73.23
2018-06-17T13:59:22.517Z,73.89
2018-06-17T14:01:51.422Z,74.14
2018-06-17T14:04:20.705Z,74.74
2018-06-17T14:06:49.288Z,74.17
2018-06-17T14:09:17.986Z,71.82
2018-06-17T14:11:47.018Z,70.26
2018-06-17T14:14:16.522Z,71.64
2018-06-17T14:16:46.079Z,70.17
2018-06-17T14:19:14.706Z,71.99
2018-06-17T14:21:43.247Z,72.40
2018-06-17T14:24:11.827Z,70.96
2018-06-17T14:26:40.324Z,72.01
2018-06-17T14:29:08.919Z,72.17
2018-06-17T14:31:37.514Z,72.98
2018-06-17T14:34:06.627Z,70.06
2018-06-17T14:36:35.282Z,70.37
2018-06-17T14:39:04.906Z,71.41
2018-06-17T14:41:33.546Z,68.34
2018-06-17T14:44:07.374Z,69.45
2018-06-17T14:46:41.102Z,70.37
2018-06-17T14:49:15.270Z,68.79
2018-06-17T14:51:49.073Z,68.00
2018-06-17T14:54:17.704Z,67.43
2018-06-17T14:56:46.263Z,68.21
2018-06-17T14:59:14.903Z,67.81
2018-06-17T15:01:43.612Z,67.76
2018-06-17T15:04:12.280Z,63.69
2018-06-17T15:06:40.852Z,62.19
2018-06-17T15:09:14.972Z,63.51
2018-06-17T15:11:51.510Z,64.67
2018-06-17T15:14:20.297Z,62.82
2018-06-17T15:16:48.933Z,61.20
2018-06-17T15:19:17.721Z,57.24
2018-06-17T15:21:46.408Z,59.43
2018-06-17T15:24:15.553Z,59.92
2018-06-17T15:26:44.106Z,58.04
2018-06-17T15:29:13.996Z,59.29
2018-06-17T15:31:47.684Z,59.84
2018-06-17T15:34:21.387Z,59.72
2018-06-17T15:36:55.242Z,58.36
2018-06-17T15:39:28.985Z,58.30
2018-06-17T15:41:58.414Z,58.90
2018-06-17T15:44:27.104Z,59.51
2018-06-17T15:46:56.301Z,60.19
2018-06-17T15:49:25.297Z,61.18
2018-06-17T15:51:53.910Z,61.69
2018-06-17T15:54:22.735Z,62.13
2018-06-17T15:56:51.846Z,65.03
2018-06-17T15:59:20.462Z,65.67
2018-06-17T16:01:49.978Z,65.84
2018-06-17T16:04:20.361Z,66.98
2018-06-17T16:06:48.898Z,68.89
2018-06-17T16:09:17.645Z,66.26
2018-06-17T16:11:52.059Z,67.64
2018-06-17T16:14:26.590Z,67.72
2018-06-17T16:17:00.407Z,66.86
2018-06-17T16:19:34.395Z,68.12
2018-06-17T16:22:03.250Z,67.21
2018-06-17T16:24:31.783Z,66.58
2018-06-17T16:27:00.433Z,64.92
2018-06-17T16:29:28.986Z,64.73
2018-06-17T16:31:57.826Z,64.09
2018-06-17T16:34:27.103Z,61.00
2018-06-17T16:36:55.739Z,62.00
2018-06-17T16:39:25.043Z,59.47
2018-06-17T16:41:53.690Z,60.55
2018-06-17T16:44:22.199Z,59.37
2018-06-17T16:46:50.821Z,57.69
2018-06-17T16:49:19.398Z,57.54
2018-06-17T16:51:53.344Z,59.53
2018-06-17T16:54:27.228Z,55.74
2018-06-17T16:57:01.164Z,57.57
2018-06-17T16:59:34.867Z,58.25
2018-06-17T17:02:04.102Z,56.59
2018-06-17T17:04:35.242Z,57.67
2018-06-17T17:07:04.455Z,58.95
2018-06-17T17:09:33.038Z,58.55
2018-06-17T17:12:01.615Z,57.92
2018-06-17T17:14:30.356Z,58.60
2018-06-17T17:16:58.939Z,58.99
2018-06-17T17:19:27.545Z,59.36
2018-06-17T17:21:56.206Z,59.39
2018-06-17T17:24:24.995Z,60.09
2018-06-17T17:26:53.622Z,61.08
2018-06-17T17:29:22.262Z,60.79
2018-06-17T17:31:56.887Z,60.13
2018-06-17T17:34:30.691Z,60.57
2018-06-17T17:37:04.397Z,60.67
2018-06-17T17:39:38.409Z,59.98
2018-06-17T17:42:07.295Z,59.76
2018-06-17T17:44:41.048Z,60.50
2018-06-17T17:47:15.827Z,59.11
2018-06-17T17:49:45.075Z,58.93
2018-06-17T17:52:14.292Z,59.58
2018-06-17T17:54:43.385Z,59.14
2018-06-17T17:57:11.996Z,59.14
2018-06-17T17:59:40.494Z,59.66
2018-06-17T18:02:09.167Z,59.26
2018-06-17T18:04:37.858Z,59.93
2018-06-17T18:07:06.447Z,59.98
2018-06-17T18:09:35.429Z,59.48
2018-06-17T18:12:04.368Z,60.82
2018-06-17T18:14:33.106Z,60.14
2018-06-17T18:17:01.842Z,60.48
2018-06-17T18:19:30.478Z,60.22
2018-06-17T18:21:58.998Z,59.65
2018-06-17T18:24:28.007Z,60.23
2018-06-17T18:27:01.961Z,61.03
2018-06-17T18:29:35.749Z,60.90
2018-06-17T18:32:11.620Z,60.50
2018-06-17T18:34:45.936Z,60.40
2018-06-17T18:37:14.626Z,61.05
2018-06-17T18:39:43.162Z,61.56
2018-06-17T18:42:12.386Z,60.60
2018-06-17T18:44:40.943Z,61.44
2018-06-17T18:47:09.517Z,61.82
2018-06-17T18:49:38.906Z,61.29
2018-06-17T18:52:09.295Z,62.21
2018-06-17T18:54:37.947Z,62.37
2018-06-17T18:57:06.664Z,62.39
2018-06-17T18:59:36.374Z,62.77
2018-06-17T19:02:05.673Z,63.08
2018-06-17T19:04:34.280Z,63.17
2018-06-17T19:07:03.759Z,62.50
2018-06-17T19:09:37.565Z,62.63
2018-06-17T19:12:11.678Z,63.08
2018-06-17T19:14:45.437Z,63.66
2018-06-17T19:17:19.127Z,63.40
2018-06-17T19:19:47.830Z,63.64
2018-06-17T19:22:16.454Z,63.56
2018-06-17T19:24:44.986Z,64.03
2018-06-17T19:27:13.722Z,64.31
2018-06-17T19:29:42.458Z,64.55
2018-06-17T19:32:11.035Z,64.88
2018-06-17T19:34:39.683Z,64.37
2018-06-17T19:37:08.361Z,64.63
2018-06-17T19:39:36.884Z,65.03
2018-06-17T19:42:05.484Z,65.71
2018-06-17T19:44:34.007Z,65.74
2018-06-17T19:47:02.609Z,65.32
2018-06-17T19:49:36.396Z,65.61
2018-06-17T19:52:10.106Z,66.32
2018-06-17T19:55:45.649Z,67.30
2018-06-17T19:58:19.426Z,67.66
2018-06-17T20:00:50.293Z,67.46
2018-06-17T20:03:18.770Z,67.22
2018-06-17T20:05:47.354Z,67.27
2018-06-17T20:08:15.937Z,67.03
2018-06-17T20:10:44.602Z,67.48
2018-06-17T20:13:13.155Z,66.79
2018-06-17T20:15:41.779Z,67.09
2018-06-17T20:18:10.474Z,66.51
2018-06-17T20:20:39.098Z,66.18
2018-06-17T20:23:07.610Z,66.43
2018-06-17T20:25:36.126Z,67.49
2018-06-17T20:28:04.725Z,66.50
2018-06-17T20:30:34.139Z,66.77
2018-06-17T20:33:08.321Z,66.27
2018-06-17T20:35:41.982Z,66.54
2018-06-17T20:38:15.930Z,66.20
2018-06-17T20:40:49.823Z,65.03
2018-06-17T20:44:21.725Z,64.69
2018-06-17T20:46:50.232Z,64.03
2018-06-17T20:49:19.076Z,64.14
2018-06-17T20:51:47.579Z,63.87
2018-06-17T20:54:16.078Z,63.83
2018-06-17T20:56:44.658Z,64.38
2018-06-17T20:59:13.250Z,62.35
2018-06-17T21:01:41.747Z,61.94
2018-06-17T21:04:10.368Z,62.11
2018-06-17T21:06:39.053Z,61.78
2018-06-17T21:09:09.994Z,61.94
2018-06-17T21:11:38.576Z,61.52
2018-06-17T21:14:07.361Z,61.65
2018-06-17T21:16:35.983Z,61.35
2018-06-17T21:19:09.851Z,61.05
2018-06-17T21:21:43.647Z,61.33
2018-06-17T21:24:17.423Z,61.48
2018-06-17T21:26:51.217Z,62.14
2018-06-17T21:29:19.938Z,62.30
2018-06-17T21:31:48.438Z,63.32
2018-06-17T21:34:17.120Z,63.10
2018-06-17T21:36:45.718Z,62.91
2018-06-17T21:39:14.331Z,61.97
2018-06-17T21:41:42.970Z,62.36
2018-06-17T21:44:11.517Z,62.07
2018-06-17T21:46:40.074Z,63.72
2018-06-17T21:49:08.720Z,63.60
2018-06-17T21:51:37.303Z,62.42
2018-06-17T21:54:05.890Z,62.71
2018-06-17T21:56:34.577Z,62.86
2018-06-17T21:59:03.303Z,63.32
2018-06-17T22:01:31.940Z,64.14
2018-06-17T22:04:05.561Z,64.23
2018-06-17T22:06:34.125Z,64.41
2018-06-17T22:09:07.984Z,64.79
2018-06-17T22:11:41.670Z,64.36
2018-06-17T22:14:15.350Z,64.82
2018-06-17T22:16:49.140Z,64.38
2018-06-17T22:19:17.724Z,64.40
2018-06-17T22:21:46.349Z,64.68
2018-06-17T22:24:14.887Z,64.97
2018-06-17T22:26:43.573Z,65.21
2018-06-17T22:29:12.156Z,65.04
2018-06-17T22:31:41.047Z,65.36
2018-06-17T22:34:09.548Z,65.04
2018-06-17T22:36:38.047Z,65.58
2018-06-17T22:39:08.742Z,66.17
2018-06-17T22:41:37.874Z,66.84
2018-06-17T22:44:06.466Z,66.65
2018-06-17T22:46:35.103Z,65.90
2018-06-17T22:49:03.578Z,64.74
2018-06-17T22:51:32.289Z,64.91
2018-06-17T22:54:12.066Z,65.96
2018-06-17T22:56:46.023Z,65.48
2018-06-17T22:59:19.829Z,65.39
2018-06-17T23:02:52.309Z,65.20
2018-06-17T23:05:26.094Z,64.52
2018-06-17T23:08:00.023Z,64.47
2018-06-17T23:10:28.607Z,63.80
2018-06-17T23:12:57.188Z,63.19
2018-06-17T23:15:25.774Z,63.08
2018-06-17T23:17:54.290Z,62.26
2018-06-17T23:20:22.778Z,62.86
2018-06-17T23:22:51.426Z,62.74
2018-06-17T23:25:19.923Z,61.88
2018-06-17T23:27:48.402Z,60.87
2018-06-17T23:30:16.962Z,60.48
2018-06-17T23:32:45.550Z,61.74
2018-06-17T23:35:14.066Z,61.30
2018-06-17T23:37:42.570Z,61.37
2018-06-17T23:40:11.196Z,61.02
2018-06-17T23:42:39.773Z,62.17
2018-06-17T23:45:08.356Z,62.52
2018-06-17T23:47:42.264Z,62.80
2018-06-17T23:50:16.007Z,63.49
2018-06-17T23:52:49.727Z,64.90
2018-06-17T23:55:23.480Z,66.04
2018-06-17T23:57:52.162Z,66.05
